createdAt,value
2016-12-29T00:00:44.734Z,81.95
2016-12-29T00:01:44.749Z,81.66
2016-12-29T00:02:44.765Z,81.66
2016-12-29T00:03:44.781Z,81.66
2016-12-29T00:04:44.797Z,81.85
2016-12-29T00:05:44.810Z,81.85
2016-12-29T00:06:44.828Z,82.23
2016-12-29T00:07:44.845Z,81.85
2016-12-29T00:08:44.868Z,81.95
2016-12-29T00:09:44.870Z,81.66
2016-12-29T00:10:44.890Z,81.95
2016-12-29T00:11:44.902Z,81.95
2016-12-29T00:12:44.920Z,82.04
2016-12-29T00:13:44.930Z,81.85
2016-12-29T00:14:44.944Z,81.95
2016-12-29T00:15:44.962Z,82.04
2016-12-29T00:16:44.973Z,81.85
2016-12-29T00:17:44.992Z,81.95
2016-12-29T00:18:45.099Z,81.85
2016-12-29T00:19:45.071Z,81.85
2016-12-29T00:20:45.053Z,81.95
2016-12-29T00:21:45.052Z,81.85
2016-12-29T00:22:45.073Z,81.56
2016-12-29T00:23:45.083Z,81.95
2016-12-29T00:24:45.098Z,81.95
2016-12-29T00:25:45.111Z,81.85
2016-12-29T00:26:45.127Z,81.95
2016-12-29T00:27:45.150Z,82.04
2016-12-29T00:28:45.160Z,81.66
2016-12-29T00:29:45.172Z,82.14
2016-12-29T00:30:45.189Z,82.04
2016-12-29T00:31:45.201Z,82.04
2016-12-29T00:32:45.217Z,82.14
2016-12-29T00:33:45.233Z,82.14
2016-12-29T00:34:45.369Z,81.95
2016-12-29T00:35:45.269Z,81.85
2016-12-29T00:36:45.280Z,81.76
2016-12-29T00:37:45.291Z,82.04
2016-12-29T00:38:45.309Z,81.95
2016-12-29T00:39:45.322Z,82.42
2016-12-29T00:40:45.345Z,82.04
2016-12-29T00:41:45.349Z,81.76
2016-12-29T00:42:45.371Z,82.51
2016-12-29T00:43:45.384Z,81.66
2016-12-29T00:44:45.403Z,81.95
2016-12-29T00:45:45.413Z,82.04
2016-12-29T00:46:45.427Z,81.85
2016-12-29T00:47:45.444Z,81.95
2016-12-29T00:48:45.456Z,82.04
2016-12-29T00:49:45.476Z,81.76
2016-12-29T00:50:45.491Z,81.66
2016-12-29T00:51:45.502Z,82.04
2016-12-29T00:52:45.520Z,82.61
2016-12-29T00:53:45.535Z,82.42
2016-12-29T00:54:45.548Z,82.32
2016-12-29T00:55:45.567Z,81.76
2016-12-29T00:56:45.581Z,82.51
2016-12-29T00:57:45.592Z,82.42
2016-12-29T00:58:45.607Z,82.32
2016-12-29T00:59:45.624Z,82.32
2016-12-29T01:00:45.642Z,82.32
2016-12-29T01:01:45.657Z,82.42
2016-12-29T01:02:45.667Z,82.51
2016-12-29T01:03:45.686Z,82.61
2016-12-29T01:04:45.696Z,82.51
2016-12-29T01:05:45.719Z,82.61
2016-12-29T01:06:45.742Z,82.51
2016-12-29T01:07:45.746Z,82.32
2016-12-29T01:08:45.765Z,82.42
2016-12-29T01:09:45.776Z,82.42
2016-12-29T01:10:45.822Z,82.14
2016-12-29T01:11:45.919Z,82.51
2016-12-29T01:12:45.819Z,82.42
2016-12-29T01:13:45.843Z,82.42
2016-12-29T01:14:45.859Z,82.42
2016-12-29T01:15:45.865Z,82.32
2016-12-29T01:16:46.283Z,81.85
2016-12-29T01:17:45.896Z,82.14
2016-12-29T01:18:45.911Z,82.14
2016-12-29T01:19:45.929Z,82.23
2016-12-29T01:20:45.943Z,82.23
2016-12-29T01:21:45.956Z,82.32
2016-12-29T01:22:45.974Z,82.23
2016-12-29T01:23:45.985Z,82.32
2016-12-29T01:24:46.001Z,82.32
2016-12-29T01:25:46.017Z,82.23
2016-12-29T01:26:46.041Z,82.8
2016-12-29T01:27:46.052Z,82.14
2016-12-29T01:28:46.062Z,82.23
2016-12-29T01:29:46.078Z,82.14
2016-12-29T01:30:46.097Z,82.42
2016-12-29T01:31:46.107Z,82.32
2016-12-29T01:32:46.124Z,82.51
2016-12-29T01:33:46.137Z,82.14
2016-12-29T01:34:46.154Z,82.23
2016-12-29T01:35:46.173Z,82.32
2016-12-29T01:36:46.183Z,82.14
2016-12-29T01:37:46.198Z,82.32
2016-12-29T01:38:46.214Z,82.14
2016-12-29T01:39:46.230Z,82.32
2016-12-29T01:40:46.243Z,82.14
2016-12-29T01:41:46.262Z,82.14
2016-12-29T01:42:46.275Z,82.32
2016-12-29T01:43:46.287Z,82.32
2016-12-29T01:44:46.301Z,82.32
2016-12-29T01:45:46.321Z,82.14
2016-12-29T01:46:46.334Z,82.51
2016-12-29T01:47:46.351Z,82.32
2016-12-29T01:48:46.461Z,82.42
2016-12-29T01:49:46.409Z,82.23
2016-12-29T01:50:46.477Z,82.32
2016-12-29T01:51:46.412Z,82.14
2016-12-29T01:52:46.426Z,82.23
2016-12-29T01:53:46.442Z,82.14
2016-12-29T01:54:46.582Z,82.42
2016-12-29T01:55:46.469Z,82.14
2016-12-29T01:56:46.550Z,82.32
2016-12-29T01:57:46.503Z,82.23
2016-12-29T01:58:46.635Z,82.51
2016-12-29T01:59:46.528Z,82.51
2016-12-29T02:00:46.663Z,82.32
2016-12-29T02:01:46.561Z,82.51
2016-12-29T02:02:46.576Z,82.42
2016-12-29T02:03:46.590Z,82.51
2016-12-29T02:04:46.607Z,82.51
2016-12-29T02:05:46.680Z,81.76
2016-12-29T02:06:46.637Z,82.32
2016-12-29T02:07:46.654Z,82.23
2016-12-29T02:08:46.840Z,82.42
2016-12-29T02:09:46.679Z,81.85
2016-12-29T02:10:46.699Z,82.42
2016-12-29T02:11:46.711Z,82.32
2016-12-29T02:12:46.725Z,82.42
2016-12-29T02:13:46.883Z,81.85
2016-12-29T02:14:46.754Z,82.32
2016-12-29T02:15:46.805Z,82.32
2016-12-29T02:16:46.826Z,82.7
2016-12-29T02:17:46.800Z,81.76
2016-12-29T02:18:46.873Z,81.76
2016-12-29T02:19:46.999Z,82.51
2016-12-29T02:20:46.934Z,81.66
2016-12-29T02:21:46.863Z,81.95
2016-12-29T02:22:46.880Z,81.95
2016-12-29T02:23:46.891Z,82.14
2016-12-29T02:24:46.906Z,81.95
2016-12-29T02:25:46.932Z,81.95
2016-12-29T02:26:46.935Z,81.85
2016-12-29T02:27:46.951Z,81.85
2016-12-29T02:28:46.967Z,81.95
2016-12-29T02:29:46.979Z,81.85
2016-12-29T02:30:46.994Z,82.04
2016-12-29T02:31:47.011Z,81.95
2016-12-29T02:32:47.027Z,82.04
2016-12-29T02:33:47.045Z,82.14
2016-12-29T02:34:47.057Z,81.95
2016-12-29T02:35:47.073Z,81.66
2016-12-29T02:36:47.090Z,81.66
2016-12-29T02:37:47.102Z,81.76
2016-12-29T02:38:47.231Z,81.56
2016-12-29T02:39:47.137Z,81.66
2016-12-29T02:40:47.262Z,81.85
2016-12-29T02:41:47.164Z,81.76
2016-12-29T02:42:47.175Z,81.95
2016-12-29T02:43:47.192Z,81.85
2016-12-29T02:44:47.208Z,81.56
2016-12-29T02:45:47.221Z,81.56
2016-12-29T02:46:47.235Z,81.85
2016-12-29T02:47:47.251Z,81.85
2016-12-29T02:48:47.270Z,81.56
2016-12-29T02:49:47.280Z,81.95
2016-12-29T02:50:47.295Z,81.95
2016-12-29T02:51:47.317Z,81.76
2016-12-29T02:52:47.332Z,82.32
2016-12-29T02:53:47.344Z,81.85
2016-12-29T02:54:47.358Z,81.85
2016-12-29T02:55:47.374Z,82.04
2016-12-29T02:56:47.386Z,81.85
2016-12-29T02:57:47.403Z,81.95
2016-12-29T02:58:47.494Z,81.85
2016-12-29T02:59:47.432Z,82.04
2016-12-29T03:00:47.456Z,81.76
2016-12-29T03:01:47.463Z,81.56
2016-12-29T03:02:47.478Z,81.76
2016-12-29T03:03:47.493Z,82.04
2016-12-29T03:04:47.623Z,82.04
2016-12-29T03:05:47.619Z,81.95
2016-12-29T03:06:47.661Z,81.76
2016-12-29T03:07:47.553Z,81.95
2016-12-29T03:08:47.574Z,81.95
2016-12-29T03:09:47.586Z,81.56
2016-12-29T03:10:47.600Z,81.66
2016-12-29T03:11:47.619Z,81.95
2016-12-29T03:12:47.626Z,81.76
2016-12-29T03:13:47.645Z,82.23
2016-12-29T03:14:47.664Z,81.66
2016-12-29T03:15:47.673Z,81.56
2016-12-29T03:16:47.689Z,81.95
2016-12-29T03:17:47.706Z,81.95
2016-12-29T03:18:47.718Z,81.47
2016-12-29T03:19:47.740Z,82.04
2016-12-29T03:20:47.751Z,81.47
2016-12-29T03:21:47.767Z,82.14
2016-12-29T03:22:47.779Z,81.85
2016-12-29T03:23:47.793Z,81.47
2016-12-29T03:24:47.809Z,81.66
2016-12-29T03:25:47.824Z,81.85
2016-12-29T03:26:47.883Z,81.47
2016-12-29T03:27:47.856Z,81.47
2016-12-29T03:28:47.870Z,81.56
2016-12-29T03:29:47.886Z,81.76
2016-12-29T03:30:47.897Z,81.47
2016-12-29T03:31:47.918Z,81.76
2016-12-29T03:32:47.933Z,81.37
2016-12-29T03:33:47.943Z,81.66
2016-12-29T03:34:47.963Z,81.76
2016-12-29T03:35:48.091Z,81.76
2016-12-29T03:36:47.995Z,81.47
2016-12-29T03:37:48.208Z,81.28
2016-12-29T03:38:48.018Z,81.18
2016-12-29T03:39:48.115Z,81.47
2016-12-29T03:40:48.051Z,81.09
2016-12-29T03:41:48.064Z,81.28
2016-12-29T03:42:48.081Z,81.28
2016-12-29T03:43:48.195Z,81.28
2016-12-29T03:44:48.203Z,81.28
2016-12-29T03:45:48.127Z,81.28
2016-12-29T03:46:48.141Z,81.56
2016-12-29T03:47:48.152Z,81.28
2016-12-29T03:48:48.172Z,81.28
2016-12-29T03:49:48.297Z,81.28
2016-12-29T03:50:48.200Z,81.28
2016-12-29T03:51:48.213Z,81.28
2016-12-29T03:52:48.234Z,81.66
2016-12-29T03:53:48.247Z,81.76
2016-12-29T03:54:48.265Z,81.76
2016-12-29T03:55:48.277Z,81.47
2016-12-29T03:56:48.294Z,82.04
2016-12-29T03:57:48.388Z,81.66
2016-12-29T03:58:48.331Z,81.66
2016-12-29T03:59:48.337Z,81.37
2016-12-29T04:00:48.354Z,81.37
2016-12-29T04:01:48.371Z,81.66
2016-12-29T04:02:48.384Z,81.66
2016-12-29T04:03:48.392Z,81.66
2016-12-29T04:04:48.413Z,81.66
2016-12-29T04:05:48.427Z,81.56
2016-12-29T04:06:48.438Z,81.66
2016-12-29T04:07:48.456Z,81.56
2016-12-29T04:08:48.475Z,81.56
2016-12-29T04:09:48.484Z,81.56
2016-12-29T04:10:48.498Z,81.37
2016-12-29T04:11:48.512Z,81.85
2016-12-29T04:12:48.528Z,81.76
2016-12-29T04:13:48.544Z,81.76
2016-12-29T04:14:48.592Z,81.37
2016-12-29T04:15:48.576Z,81.85
2016-12-29T04:16:48.594Z,81.37
2016-12-29T04:17:48.610Z,81.66
2016-12-29T04:18:48.621Z,81.66
2016-12-29T04:19:48.639Z,81.66
2016-12-29T04:20:48.648Z,81.66
2016-12-29T04:21:48.665Z,81.66
2016-12-29T04:22:48.679Z,81.56
2016-12-29T04:23:48.695Z,81.47
2016-12-29T04:24:48.708Z,81.85
2016-12-29T04:25:48.728Z,81.37
2016-12-29T04:26:48.741Z,81.33
2016-12-29T04:27:48.859Z,81.66
2016-12-29T04:28:48.832Z,81.66
2016-12-29T04:29:48.784Z,81.37
2016-12-29T04:30:48.803Z,81.66
2016-12-29T04:31:48.813Z,81.47
2016-12-29T04:32:48.832Z,81.66
2016-12-29T04:33:48.843Z,81.85
2016-12-29T04:34:48.861Z,81.66
2016-12-29T04:35:48.876Z,81.37
2016-12-29T04:36:48.889Z,81.37
2016-12-29T04:37:48.912Z,81.37
2016-12-29T04:38:48.917Z,82.14
2016-12-29T04:39:48.934Z,81.62
2016-12-29T04:40:49.027Z,81.47
2016-12-29T04:41:49.027Z,81.37
2016-12-29T04:42:48.982Z,81.52
2016-12-29T04:43:48.999Z,81.56
2016-12-29T04:44:49.015Z,81.76
2016-12-29T04:45:49.023Z,81.66
2016-12-29T04:46:49.041Z,81.47
2016-12-29T04:47:49.055Z,81.56
2016-12-29T04:48:49.071Z,81.33
2016-12-29T04:49:49.092Z,81.56
2016-12-29T04:50:49.103Z,81.33
2016-12-29T04:51:49.118Z,81.85
2016-12-29T04:52:49.242Z,81.62
2016-12-29T04:53:49.305Z,81.9
2016-12-29T04:54:49.271Z,81.9
2016-12-29T04:55:49.327Z,81.56
2016-12-29T04:56:49.306Z,81.95
2016-12-29T04:57:49.481Z,81.62
2016-12-29T04:58:49.334Z,81.52
2016-12-29T04:59:49.387Z,81.43
2016-12-29T05:00:49.248Z,81.37
2016-12-29T05:01:49.265Z,81.76
2016-12-29T05:02:49.280Z,81.71
2016-12-29T05:03:49.294Z,81.43
2016-12-29T05:04:49.310Z,81.71
2016-12-29T05:05:49.324Z,81.9
2016-12-29T05:06:49.340Z,81.24
2016-12-29T05:07:49.477Z,81.52
2016-12-29T05:08:49.485Z,81.52
2016-12-29T05:09:49.381Z,81.24
2016-12-29T05:10:49.480Z,81.14
2016-12-29T05:11:49.412Z,81.14
2016-12-29T05:12:49.430Z,81.14
2016-12-29T05:13:49.444Z,81.24
2016-12-29T05:14:49.462Z,81.14
2016-12-29T05:15:49.473Z,81.24
2016-12-29T05:16:49.487Z,81.14
2016-12-29T05:17:49.504Z,81.24
2016-12-29T05:18:49.522Z,81.24
2016-12-29T05:19:49.544Z,81.24
2016-12-29T05:20:49.548Z,81.24
2016-12-29T05:21:49.565Z,81.05
2016-12-29T05:22:49.583Z,81.24
2016-12-29T05:23:49.620Z,81.14
2016-12-29T05:24:49.605Z,81.05
2016-12-29T05:25:49.627Z,81.05
2016-12-29T05:26:49.752Z,81.24
2016-12-29T05:27:49.657Z,81.05
2016-12-29T05:28:49.673Z,81.05
2016-12-29T05:29:49.680Z,81.05
2016-12-29T05:30:49.698Z,81.05
2016-12-29T05:31:49.711Z,81.24
2016-12-29T05:32:49.733Z,81.05
2016-12-29T05:33:49.742Z,81.24
2016-12-29T05:34:49.758Z,81.24
2016-12-29T05:35:49.777Z,81.05
2016-12-29T05:36:49.787Z,81.05
2016-12-29T05:37:49.803Z,81.24
2016-12-29T05:38:49.817Z,81.33
2016-12-29T05:39:49.832Z,81.24
2016-12-29T05:40:49.847Z,80.95
2016-12-29T05:41:49.863Z,81.24
2016-12-29T05:42:49.874Z,81.05
2016-12-29T05:43:49.894Z,81.24
2016-12-29T05:44:49.908Z,81.24
2016-12-29T05:45:49.920Z,81.24
2016-12-29T05:46:49.936Z,81.24
2016-12-29T05:47:49.951Z,81.14
2016-12-29T05:48:49.965Z,81.24
2016-12-29T05:49:49.978Z,81.14
2016-12-29T05:50:49.995Z,81.24
2016-12-29T05:51:50.125Z,81.24
2016-12-29T05:52:50.022Z,81.24
2016-12-29T05:53:50.043Z,81.33
2016-12-29T05:54:50.058Z,81.24
2016-12-29T05:55:50.074Z,81.24
2016-12-29T05:56:50.083Z,81.33
2016-12-29T05:57:50.104Z,81.33
2016-12-29T05:58:50.128Z,80.95
2016-12-29T05:59:50.175Z,81.24
2016-12-29T06:00:50.144Z,81.14
2016-12-29T06:01:50.157Z,81.05
2016-12-29T06:02:50.201Z,81.33
2016-12-29T06:03:50.189Z,81.24
2016-12-29T06:04:50.203Z,81.24
2016-12-29T06:05:50.221Z,81.14
2016-12-29T06:06:50.233Z,81.43
2016-12-29T06:07:50.252Z,80.95
2016-12-29T06:08:50.264Z,81.24
2016-12-29T06:09:50.280Z,81.24
2016-12-29T06:10:50.293Z,81.05
2016-12-29T06:11:50.311Z,81.05
2016-12-29T06:12:50.324Z,81.24
2016-12-29T06:13:50.337Z,81.05
2016-12-29T06:14:50.357Z,81.24
2016-12-29T06:15:50.371Z,81.05
2016-12-29T06:16:50.388Z,81.05
2016-12-29T06:17:50.404Z,81.24
2016-12-29T06:18:50.411Z,81.24
2016-12-29T06:19:50.425Z,81.05
2016-12-29T06:20:50.444Z,81.24
2016-12-29T06:21:50.572Z,81.05
2016-12-29T06:22:50.470Z,81.05
2016-12-29T06:23:50.486Z,81.05
2016-12-29T06:24:50.514Z,81.05
2016-12-29T06:25:50.511Z,81.05
2016-12-29T06:26:50.535Z,80.95
2016-12-29T06:27:50.546Z,81.05
2016-12-29T06:28:50.562Z,81.05
2016-12-29T06:29:50.574Z,81.05
2016-12-29T06:30:50.588Z,81.14
2016-12-29T06:31:50.602Z,81.24
2016-12-29T06:32:50.618Z,81.05
2016-12-29T06:33:50.637Z,81.24
2016-12-29T06:34:50.648Z,81.33
2016-12-29T06:35:50.662Z,81.24
2016-12-29T06:36:50.677Z,81.33
2016-12-29T06:37:50.704Z,81.24
2016-12-29T06:38:50.709Z,81.24
2016-12-29T06:39:50.833Z,81.24
2016-12-29T06:40:50.736Z,81.05
2016-12-29T06:41:50.853Z,81.24
2016-12-29T06:42:50.767Z,81.24
2016-12-29T06:43:50.782Z,81.14
2016-12-29T06:44:50.794Z,81.24
2016-12-29T06:45:50.811Z,81.33
2016-12-29T06:46:50.822Z,81.24
2016-12-29T06:47:50.844Z,81.24
2016-12-29T06:48:50.927Z,81.14
2016-12-29T06:49:50.873Z,81.43
2016-12-29T06:50:50.944Z,81.14
2016-12-29T06:51:50.896Z,81.33
2016-12-29T06:52:50.952Z,81.33
2016-12-29T06:53:50.931Z,81.24
2016-12-29T06:54:51.053Z,81.14
2016-12-29T06:55:51.024Z,81.33
2016-12-29T06:56:50.979Z,81.52
2016-12-29T06:57:50.986Z,81.33
2016-12-29T06:58:51.003Z,81.52
2016-12-29T06:59:51.016Z,81.43
2016-12-29T07:00:51.241Z,81.43
2016-12-29T07:01:51.046Z,81.43
2016-12-29T07:02:51.061Z,81.52
2016-12-29T07:03:51.078Z,81.9
2016-12-29T07:04:51.097Z,81.33
2016-12-29T07:05:51.146Z,81.71
2016-12-29T07:06:51.145Z,81.43
2016-12-29T07:07:51.223Z,81.33
2016-12-29T07:08:51.150Z,81.62
2016-12-29T07:09:51.171Z,81.24
2016-12-29T07:10:51.180Z,81.71
2016-12-29T07:11:51.194Z,81.62
2016-12-29T07:12:51.209Z,81.43
2016-12-29T07:13:51.223Z,81.24
2016-12-29T07:14:51.242Z,81.62
2016-12-29T07:15:51.253Z,81.43
2016-12-29T07:16:51.268Z,81.62
2016-12-29T07:17:51.286Z,81.33
2016-12-29T07:18:51.298Z,81.62
2016-12-29T07:19:51.322Z,81.43
2016-12-29T07:20:51.721Z,81.62
2016-12-29T07:21:51.343Z,81.24
2016-12-29T07:22:51.358Z,81.62
2016-12-29T07:23:51.374Z,81.62
2016-12-29T07:24:51.503Z,81.62
2016-12-29T07:25:51.402Z,81.71
2016-12-29T07:26:51.413Z,81.33
2016-12-29T07:27:51.430Z,81.33
2016-12-29T07:28:51.448Z,81.52
2016-12-29T07:29:51.470Z,81.52
2016-12-29T07:30:51.478Z,81.52
2016-12-29T07:31:51.490Z,81.9
2016-12-29T07:32:51.502Z,81.81
2016-12-29T07:33:51.918Z,81.33
2016-12-29T07:34:51.566Z,81.33
2016-12-29T07:35:51.552Z,81.71
2016-12-29T07:36:51.570Z,81.62
2016-12-29T07:37:51.768Z,81.52
2016-12-29T07:38:51.623Z,81.52
2016-12-29T07:39:51.614Z,81.71
2016-12-29T07:40:51.623Z,81.62
2016-12-29T07:41:51.636Z,81.62
2016-12-29T07:42:51.660Z,81.71
2016-12-29T07:43:51.665Z,81.43
2016-12-29T07:44:51.680Z,81.71
2016-12-29T07:45:51.698Z,81.43
2016-12-29T07:46:51.714Z,81.52
2016-12-29T07:47:51.725Z,81.81
2016-12-29T07:48:51.743Z,81.43
2016-12-29T07:49:51.755Z,81.62
2016-12-29T07:50:51.768Z,81.43
2016-12-29T07:51:51.787Z,81.43
2016-12-29T07:52:51.805Z,81.62
2016-12-29T07:53:51.816Z,81.52
2016-12-29T07:54:51.834Z,81.43
2016-12-29T07:55:51.854Z,81.43
2016-12-29T07:56:51.858Z,81.33
2016-12-29T07:57:51.981Z,81.43
2016-12-29T07:58:51.896Z,81.62
2016-12-29T07:59:51.904Z,81.52
2016-12-29T08:00:51.917Z,81.71
2016-12-29T08:01:51.937Z,81.62
2016-12-29T08:02:51.949Z,81.62
2016-12-29T08:03:51.962Z,81.62
2016-12-29T08:04:51.977Z,81.62
2016-12-29T08:05:51.992Z,81.33
2016-12-29T08:06:52.011Z,81.62
2016-12-29T08:07:52.022Z,81.62
2016-12-29T08:08:52.036Z,81.43
2016-12-29T08:09:52.048Z,81.62
2016-12-29T08:10:52.066Z,81.52
2016-12-29T08:11:52.081Z,81.52
2016-12-29T08:12:52.094Z,81.9
2016-12-29T08:13:52.112Z,81.71
2016-12-29T08:14:52.240Z,81.33
2016-12-29T08:15:52.139Z,81.24
2016-12-29T08:16:52.159Z,81.24
2016-12-29T08:17:52.179Z,80.95
2016-12-29T08:18:52.185Z,81.14
2016-12-29T08:19:52.201Z,81.05
2016-12-29T08:20:52.220Z,81.24
2016-12-29T08:21:52.228Z,81.14
2016-12-29T08:22:52.244Z,81.24
2016-12-29T08:23:52.259Z,81.33
2016-12-29T08:24:52.274Z,81.24
2016-12-29T08:25:52.293Z,80.95
2016-12-29T08:26:52.301Z,81.24
2016-12-29T08:27:52.320Z,81.14
2016-12-29T08:28:52.336Z,81.24
2016-12-29T08:29:52.348Z,81.24
2016-12-29T08:30:52.361Z,81.33
2016-12-29T08:31:52.376Z,81.33
2016-12-29T08:32:52.390Z,81.33
2016-12-29T08:33:52.407Z,81.33
2016-12-29T08:34:52.421Z,81.14
2016-12-29T08:35:52.442Z,81.43
2016-12-29T08:36:52.451Z,81.43
2016-12-29T08:37:52.466Z,81.14
2016-12-29T08:38:52.481Z,81.24
2016-12-29T08:39:52.497Z,81.24
2016-12-29T08:40:52.513Z,81.43
2016-12-29T08:41:52.534Z,81.33
2016-12-29T08:42:52.539Z,81.33
2016-12-29T08:43:52.556Z,81.33
2016-12-29T08:44:52.566Z,81.33
2016-12-29T08:45:52.588Z,81.43
2016-12-29T08:46:52.601Z,81.33
2016-12-29T08:47:52.616Z,81.33
2016-12-29T08:48:52.625Z,81.33
2016-12-29T08:49:52.645Z,81.24
2016-12-29T08:50:52.658Z,81.33
2016-12-29T08:51:52.791Z,81.14
2016-12-29T08:52:52.804Z,81.24
2016-12-29T08:53:52.795Z,81.14
2016-12-29T08:54:52.947Z,81.14
2016-12-29T08:55:52.964Z,81.14
2016-12-29T08:56:52.840Z,81.18
2016-12-29T08:57:52.948Z,81.24
2016-12-29T08:58:52.867Z,81.28
2016-12-29T08:59:53.034Z,81.33
2016-12-29T09:00:52.944Z,81.14
2016-12-29T09:01:52.937Z,81.24
2016-12-29T09:02:53.088Z,81.05
2016-12-29T09:03:52.960Z,81.37
2016-12-29T09:04:52.972Z,81.28
2016-12-29T09:05:52.979Z,81.37
2016-12-29T09:06:53.112Z,81.18
2016-12-29T09:07:52.911Z,81.18
2016-12-29T09:08:52.926Z,81.09
2016-12-29T09:09:52.943Z,81.18
2016-12-29T09:10:52.960Z,81.37
2016-12-29T09:11:53.022Z,81.09
2016-12-29T09:12:52.987Z,80.99
2016-12-29T09:13:53.002Z,81.18
2016-12-29T09:14:53.021Z,81.18
2016-12-29T09:15:53.032Z,80.99
2016-12-29T09:16:53.049Z,81.18
2016-12-29T09:17:53.063Z,80.99
2016-12-29T09:18:53.079Z,81.18
2016-12-29T09:19:53.092Z,80.8
2016-12-29T09:20:53.112Z,81.37
2016-12-29T09:21:53.127Z,80.71
2016-12-29T09:22:53.149Z,80.9
2016-12-29T09:23:53.153Z,80.99
2016-12-29T09:24:53.171Z,80.99
2016-12-29T09:25:53.185Z,80.8
2016-12-29T09:26:53.200Z,80.8
2016-12-29T09:27:53.208Z,80.8
2016-12-29T09:28:53.229Z,80.9
2016-12-29T09:29:53.241Z,81.09
2016-12-29T09:30:53.259Z,81.18
2016-12-29T09:31:53.272Z,80.8
2016-12-29T09:32:53.288Z,81.18
2016-12-29T09:33:53.302Z,80.99
2016-12-29T09:34:53.324Z,81.09
2016-12-29T09:35:53.336Z,80.9
2016-12-29T09:36:53.349Z,80.9
2016-12-29T09:37:53.363Z,80.8
2016-12-29T09:38:53.389Z,81.09
2016-12-29T09:39:53.389Z,81.18
2016-12-29T09:40:53.413Z,80.9
2016-12-29T09:41:53.426Z,80.99
2016-12-29T09:42:53.438Z,81.18
2016-12-29T09:43:53.539Z,80.9
2016-12-29T09:44:53.467Z,80.9
2016-12-29T09:45:53.484Z,81.09
2016-12-29T09:46:53.502Z,80.8
2016-12-29T09:47:53.515Z,80.8
2016-12-29T09:48:53.533Z,80.99
2016-12-29T09:49:53.543Z,80.8
2016-12-29T09:50:53.557Z,80.8
2016-12-29T09:51:53.577Z,80.8
2016-12-29T09:52:53.585Z,81.09
2016-12-29T09:53:53.608Z,80.9
2016-12-29T09:54:53.624Z,80.9
2016-12-29T09:55:53.632Z,81.09
2016-12-29T09:56:53.677Z,80.71
2016-12-29T09:57:53.662Z,81.09
2016-12-29T09:58:53.681Z,80.8
2016-12-29T09:59:53.695Z,80.61
2016-12-29T10:00:53.710Z,80.71
2016-12-29T10:01:53.726Z,80.8
2016-12-29T10:02:53.740Z,80.8
2016-12-29T10:03:53.759Z,80.8
2016-12-29T10:04:53.771Z,80.9
2016-12-29T10:05:53.784Z,80.9
2016-12-29T10:06:53.804Z,80.33
2016-12-29T10:07:53.926Z,80.9
2016-12-29T10:08:53.847Z,80.8
2016-12-29T10:09:53.896Z,80.71
2016-12-29T10:10:53.859Z,80.52
2016-12-29T10:11:53.879Z,80.71
2016-12-29T10:12:53.989Z,80.61
2016-12-29T10:13:53.907Z,80.71
2016-12-29T10:14:53.922Z,80.71
2016-12-29T10:15:53.938Z,80.8
2016-12-29T10:16:53.955Z,80.8
2016-12-29T10:17:53.968Z,81.09
2016-12-29T10:18:53.980Z,80.99
2016-12-29T10:19:53.997Z,80.99
2016-12-29T10:20:54.012Z,80.9
2016-12-29T10:21:54.026Z,81.03
2016-12-29T10:22:54.042Z,81.03
2016-12-29T10:23:54.057Z,80.61
2016-12-29T10:24:54.072Z,80.99
2016-12-29T10:25:54.090Z,81.03
2016-12-29T10:26:54.102Z,80.75
2016-12-29T10:27:54.119Z,80.61
2016-12-29T10:28:54.153Z,80.75
2016-12-29T10:29:54.146Z,80.55
2016-12-29T10:30:54.273Z,80.55
2016-12-29T10:31:54.180Z,80.84
2016-12-29T10:32:54.196Z,80.55
2016-12-29T10:33:54.210Z,80.46
2016-12-29T10:34:54.228Z,80.46
2016-12-29T10:35:54.246Z,80.55
2016-12-29T10:36:54.263Z,80.55
2016-12-29T10:37:54.407Z,80.46
2016-12-29T10:38:54.288Z,80.46
2016-12-29T10:39:54.302Z,80.46
2016-12-29T10:40:54.317Z,80.42
2016-12-29T10:41:54.334Z,80.42
2016-12-29T10:42:54.346Z,80.55
2016-12-29T10:43:54.394Z,80.65
2016-12-29T10:44:54.495Z,80.75
2016-12-29T10:45:54.397Z,80.84
2016-12-29T10:46:54.413Z,80.75
2016-12-29T10:47:54.426Z,80.75
2016-12-29T10:48:54.451Z,80.65
2016-12-29T10:49:54.458Z,80.75
2016-12-29T10:50:54.475Z,80.75
2016-12-29T10:51:54.485Z,80.55
2016-12-29T10:52:54.505Z,80.27
2016-12-29T10:53:54.518Z,80.27
2016-12-29T10:54:54.537Z,79.99
2016-12-29T10:55:54.548Z,79.8
2016-12-29T10:56:54.566Z,79.99
2016-12-29T10:57:54.584Z,80.18
2016-12-29T10:58:54.598Z,79.7
2016-12-29T10:59:54.612Z,80.55
2016-12-29T11:00:54.630Z,79.99
2016-12-29T11:01:54.644Z,80.36
2016-12-29T11:02:54.658Z,80.08
2016-12-29T11:03:54.682Z,80.18
2016-12-29T11:04:54.691Z,80.08
2016-12-29T11:05:54.706Z,80.08
2016-12-29T11:06:54.720Z,79.89
2016-12-29T11:07:54.739Z,80.08
2016-12-29T11:08:54.752Z,80.08
2016-12-29T11:09:54.765Z,79.89
2016-12-29T11:10:54.784Z,80.36
2016-12-29T11:11:54.799Z,79.99
2016-12-29T11:12:54.819Z,80.18
2016-12-29T11:13:54.830Z,80.08
2016-12-29T11:14:54.847Z,80.08
2016-12-29T11:15:54.862Z,80.27
2016-12-29T11:16:54.879Z,80.18
2016-12-29T11:17:54.917Z,80.27
2016-12-29T11:18:54.905Z,80.08
2016-12-29T11:19:54.923Z,79.99
2016-12-29T11:20:54.939Z,80.27
2016-12-29T11:21:54.953Z,80.27
2016-12-29T11:22:54.971Z,79.99
2016-12-29T11:23:54.989Z,80.08
2016-12-29T11:24:55.002Z,79.99
2016-12-29T11:25:55.017Z,80.27
2016-12-29T11:26:55.041Z,80.36
2016-12-29T11:27:55.050Z,79.89
2016-12-29T11:28:55.069Z,79.8
2016-12-29T11:29:55.086Z,80.27
2016-12-29T11:30:55.097Z,79.8
2016-12-29T11:31:55.113Z,80.18
2016-12-29T11:32:55.127Z,80.27
2016-12-29T11:33:55.144Z,80.27
2016-12-29T11:34:55.158Z,80.46
2016-12-29T11:35:55.178Z,80.18
2016-12-29T11:36:55.188Z,79.6
2016-12-29T11:37:55.204Z,79.51
2016-12-29T11:38:55.220Z,79.6
2016-12-29T11:39:55.249Z,79.89
2016-12-29T11:40:55.251Z,79.8
2016-12-29T11:41:55.284Z,79.51
2016-12-29T11:42:55.282Z,79.89
2016-12-29T11:43:55.298Z,79.7
2016-12-29T11:44:55.316Z,79.6
2016-12-29T11:45:55.330Z,79.6
2016-12-29T11:46:55.342Z,79.7
2016-12-29T11:47:55.363Z,79.51
2016-12-29T11:48:55.384Z,79.7
2016-12-29T11:49:55.395Z,79.89
2016-12-29T11:50:55.410Z,79.89
2016-12-29T11:51:55.424Z,79.8
2016-12-29T11:52:55.440Z,79.6
2016-12-29T11:53:55.459Z,79.51
2016-12-29T11:54:55.478Z,79.6
2016-12-29T11:55:55.488Z,79.6
2016-12-29T11:56:55.501Z,79.7
2016-12-29T11:57:55.521Z,79.6
2016-12-29T11:58:55.535Z,79.64
2016-12-29T11:59:55.560Z,79.7
2016-12-29T12:00:55.566Z,79.32
2016-12-29T12:01:55.597Z,79.32
2016-12-29T12:02:55.596Z,79.41
2016-12-29T12:03:55.616Z,79.41
2016-12-29T12:04:55.631Z,79.17
2016-12-29T12:05:55.663Z,79.22
2016-12-29T12:06:55.660Z,79.17
2016-12-29T12:07:55.679Z,79.46
2016-12-29T12:08:55.698Z,79.55
2016-12-29T12:09:55.721Z,79.41
2016-12-29T12:10:55.726Z,79.07
2016-12-29T12:11:55.739Z,79.36
2016-12-29T12:12:55.758Z,79.41
2016-12-29T12:13:55.769Z,79.13
2016-12-29T12:14:55.787Z,79.17
2016-12-29T12:15:55.797Z,79.27
2016-12-29T12:16:55.815Z,79.13
2016-12-29T12:17:56.224Z,79.32
2016-12-29T12:18:55.853Z,79.13
2016-12-29T12:19:55.868Z,79.03
2016-12-29T12:20:55.883Z,79.22
2016-12-29T12:21:55.909Z,79.03
2016-12-29T12:22:55.921Z,79.03
2016-12-29T12:23:55.932Z,79.22
2016-12-29T12:24:55.946Z,78.94
2016-12-29T12:25:55.967Z,78.85
2016-12-29T12:26:55.976Z,79.6
2016-12-29T12:27:56.001Z,79.13
2016-12-29T12:28:56.008Z,79.13
2016-12-29T12:29:56.029Z,79.17
2016-12-29T12:30:56.034Z,79.03
2016-12-29T12:31:56.057Z,79.07
2016-12-29T12:32:56.070Z,79.13
2016-12-29T12:33:56.086Z,79.07
2016-12-29T12:34:56.104Z,79.17
2016-12-29T12:35:56.131Z,79.03
2016-12-29T12:36:56.133Z,79.07
2016-12-29T12:37:56.158Z,79.07
2016-12-29T12:38:56.169Z,79.07
2016-12-29T12:39:56.188Z,79.46
2016-12-29T12:40:56.198Z,79.41
2016-12-29T12:41:56.225Z,79.07
2016-12-29T12:42:56.226Z,79.27
2016-12-29T12:43:56.252Z,79.17
2016-12-29T12:44:56.260Z,79.07
2016-12-29T12:45:56.279Z,79.17
2016-12-29T12:46:56.290Z,79.36
2016-12-29T12:47:56.313Z,78.88
2016-12-29T12:48:56.347Z,78.88
2016-12-29T12:49:56.344Z,78.78
2016-12-29T12:50:56.353Z,79.27
2016-12-29T12:51:56.377Z,79.27
2016-12-29T12:52:56.387Z,79.17
2016-12-29T12:53:56.406Z,78.98
2016-12-29T12:54:56.423Z,79.07